createdAt,value
2022-09-21T00:01:07.929Z,94779.44
2022-09-21T00:03:09.635Z,94780.59
2022-09-21T00:05:11.243Z,94780.19
2022-09-21T00:07:12.871Z,94786.78
2022-09-21T00:09:14.524Z,94782.91
2022-09-21T00:11:21.034Z,94778.66
2022-09-21T00:13:22.892Z,94780.47
2022-09-21T00:15:24.952Z,94785.03
2022-09-21T00:17:26.543Z,94772.88
2022-09-21T00:19:28.200Z,94788.72
2022-09-21T00:21:30.484Z,94783.75
2022-09-21T00:23:32.136Z,94771.06
2022-09-21T00:25:33.834Z,94780.78
2022-09-21T00:27:35.611Z,94772.03
2022-09-21T00:29:37.362Z,94773.09
2022-09-21T00:31:39.019Z,94770.22
2022-09-21T00:33:41.338Z,94768.44
2022-09-21T00:35:42.889Z,94770.47
2022-09-21T00:37:44.763Z,94772.19
2022-09-21T00:39:46.463Z,94772.28
2022-09-21T00:41:49.300Z,94776.78
2022-09-21T00:44:18.627Z,94776.53
2022-09-21T00:46:31.014Z,94773.91
2022-09-21T00:48:33.419Z,94774.31
2022-09-21T00:50:35.794Z,94774.69
2022-09-21T00:52:48.742Z,94774.91
2022-09-21T00:54:50.548Z,94766.09
2022-09-21T00:56:52.280Z,94775.19
2022-09-21T00:58:55.081Z,94772.47
2022-09-21T01:00:59.557Z,94767.44
2022-09-21T01:03:01.542Z,94761.75
2022-09-21T01:05:04.990Z,94766.84
2022-09-21T01:07:12.371Z,94768.13
2022-09-21T01:09:14.808Z,94776.53
2022-09-21T01:11:28.322Z,94777.22
2022-09-21T01:13:51.180Z,94775.91
2022-09-21T01:16:15.958Z,94780.78
2022-09-21T01:18:33.088Z,94774.53
2022-09-21T01:21:00.529Z,94768.22
2022-09-21T01:23:38.610Z,94772.78
2022-09-21T01:25:49.008Z,94776.22
2022-09-21T01:28:30.383Z,94765.34
2022-09-21T01:30:34.226Z,94760.44
2022-09-21T01:32:40.704Z,94756.78
2022-09-21T01:34:52.887Z,94755.06
2022-09-21T01:36:57.958Z,94760.16
2022-09-21T01:39:05.783Z,94749.31
2022-09-21T01:41:08.607Z,94756.09
2022-09-21T01:43:14.376Z,94749.47
2022-09-21T01:45:19.475Z,94743.47
2022-09-21T01:47:21.364Z,94745.97
2022-09-21T01:49:36.857Z,94740.00
2022-09-21T01:51:43.744Z,94743.63
2022-09-21T01:53:50.581Z,94750.19
2022-09-21T01:55:55.653Z,94747.44
2022-09-21T01:58:02.616Z,94748.94
2022-09-21T02:00:05.711Z,94737.47
2022-09-21T02:02:13.726Z,94748.59
2022-09-21T02:04:15.573Z,94748.66
2022-09-21T02:06:18.348Z,94747.72
2022-09-21T02:08:20.273Z,94744.00
2022-09-21T02:10:32.610Z,94751.25
2022-09-21T02:12:34.714Z,94748.81
2022-09-21T02:14:37.365Z,94756.50
2022-09-21T02:16:56.383Z,94758.34
2022-09-21T02:19:39.608Z,94754.69
2022-09-21T02:21:57.362Z,94751.41
2022-09-21T02:24:04.860Z,94763.72
2022-09-21T02:26:06.829Z,94764.97
2022-09-21T02:28:32.513Z,94765.72
2022-09-21T02:30:35.953Z,94764.34
2022-09-21T02:32:43.613Z,94765.94
2022-09-21T02:34:49.574Z,94775.13
2022-09-21T02:36:59.802Z,94769.06
2022-09-21T02:39:32.697Z,94759.22
2022-09-21T02:41:57.521Z,94761.91
2022-09-21T02:44:13.827Z,94768.59
2022-09-21T02:46:18.554Z,94762.97
2022-09-21T02:48:29.119Z,94769.56
2022-09-21T02:50:36.800Z,94759.19
2022-09-21T02:52:41.205Z,94765.59
2022-09-21T02:54:45.337Z,94767.28
2022-09-21T02:56:48.833Z,94761.50
2022-09-21T02:58:57.055Z,94765.38
2022-09-21T03:00:59.525Z,94760.63
2022-09-21T03:03:01.120Z,94767.34
2022-09-21T03:05:02.811Z,94764.56
2022-09-21T03:07:05.059Z,94757.53
2022-09-21T03:09:06.675Z,94768.16
2022-09-21T03:11:08.333Z,94763.00
2022-09-21T03:13:10.664Z,94767.41
2022-09-21T03:15:12.285Z,94769.44
2022-09-21T03:17:14.218Z,94764.41
2022-09-21T03:19:15.884Z,94759.56
2022-09-21T03:21:17.789Z,94758.59
2022-09-21T03:23:19.714Z,94765.59
2022-09-21T03:25:21.282Z,94769.56
2022-09-21T03:27:24.199Z,94769.47
2022-09-21T03:29:25.797Z,94775.75
2022-09-21T03:31:27.391Z,94776.53
2022-09-21T03:33:29.006Z,94768.19
2022-09-21T03:35:30.640Z,94772.00
2022-09-21T03:37:32.208Z,94770.16
2022-09-21T03:39:34.032Z,94768.97
2022-09-21T03:41:35.690Z,94773.84
2022-09-21T03:43:37.286Z,94776.69
2022-09-21T03:45:40.983Z,94775.69
2022-09-21T03:47:42.986Z,94778.03
2022-09-21T03:49:44.561Z,94784.50
2022-09-21T03:51:46.194Z,94783.13
2022-09-21T03:53:47.835Z,94778.97
2022-09-21T03:55:49.979Z,94783.31
2022-09-21T03:57:51.650Z,94793.53
2022-09-21T03:59:54.359Z,94791.72
2022-09-21T04:01:55.970Z,94781.47
2022-09-21T04:03:57.522Z,94777.50
2022-09-21T04:05:59.358Z,94773.00
2022-09-21T04:08:02.197Z,94777.28
2022-09-21T04:10:06.858Z,94779.78
2022-09-21T04:12:08.537Z,94785.03
2022-09-21T04:14:12.141Z,94775.34
2022-09-21T04:16:13.744Z,94779.56
2022-09-21T04:18:15.346Z,94781.91
2022-09-21T04:20:17.167Z,94790.56
2022-09-21T04:22:18.835Z,94782.63
2022-09-21T04:24:20.420Z,94782.41
2022-09-21T04:26:25.854Z,94779.78
2022-09-21T04:28:27.453Z,94773.53
2022-09-21T04:30:32.097Z,94777.28
2022-09-21T04:32:36.060Z,94781.72
2022-09-21T04:34:39.568Z,94782.09
2022-09-21T04:36:41.134Z,94782.22
2022-09-21T04:38:42.772Z,94785.03
2022-09-21T04:40:44.327Z,94780.69
2022-09-21T04:42:51.436Z,94778.13
2022-09-21T04:44:53.184Z,94776.84
2022-09-21T04:46:54.769Z,94779.00
2022-09-21T04:48:56.437Z,94782.78
2022-09-21T04:50:58.504Z,94778.41
2022-09-21T04:53:00.206Z,94768.94
2022-09-21T04:55:01.768Z,94779.47
2022-09-21T04:57:03.604Z,94776.75
2022-09-21T04:59:05.361Z,94782.16
2022-09-21T05:01:07.714Z,94785.69
2022-09-21T05:03:28.158Z,94785.13
2022-09-21T05:05:29.734Z,94779.22
2022-09-21T05:07:31.338Z,94787.44
2022-09-21T05:09:51.746Z,94789.31
2022-09-21T05:11:54.182Z,94793.88
2022-09-21T05:13:55.787Z,94794.72
2022-09-21T05:15:57.614Z,94784.97
2022-09-21T05:17:59.207Z,94792.81
2022-09-21T05:20:00.858Z,94795.13
2022-09-21T05:22:02.830Z,94796.00
2022-09-21T05:24:04.687Z,94794.72
2022-09-21T05:26:06.857Z,94796.25
2022-09-21T05:28:08.799Z,94794.28
2022-09-21T05:30:10.946Z,94793.09
2022-09-21T05:32:14.431Z,94787.28
2022-09-21T05:34:29.447Z,94795.94
2022-09-21T05:36:38.532Z,94789.97
2022-09-21T05:38:40.561Z,94794.97
2022-09-21T05:40:42.457Z,94795.06
2022-09-21T05:42:44.518Z,94799.00
2022-09-21T05:44:49.519Z,94805.88
2022-09-21T05:47:15.724Z,94799.97
2022-09-21T05:49:45.397Z,94791.53
2022-09-21T05:52:09.202Z,94793.50
2022-09-21T05:54:55.477Z,94794.91
2022-09-21T05:57:11.012Z,94790.28
2022-09-21T05:59:31.230Z,94789.41
2022-09-21T06:01:35.703Z,94793.00
2022-09-21T06:03:37.464Z,94784.50
2022-09-21T06:05:40.202Z,94788.66
2022-09-21T06:07:42.190Z,94793.03
2022-09-21T06:09:43.844Z,94797.03
2022-09-21T06:11:45.539Z,94797.03
2022-09-21T06:13:47.187Z,94797.25
2022-09-21T06:15:49.170Z,94801.53
2022-09-21T06:17:50.720Z,94800.44
2022-09-21T06:19:52.383Z,94800.00
2022-09-21T06:21:54.034Z,94799.53
2022-09-21T06:23:55.638Z,94806.16
2022-09-21T06:25:58.740Z,94805.25
2022-09-21T06:28:10.666Z,94796.91
2022-09-21T06:30:12.518Z,94803.06
2022-09-21T06:32:14.060Z,94815.63
2022-09-21T06:34:15.890Z,94810.19
2022-09-21T06:36:17.857Z,94813.84
2022-09-21T06:38:19.428Z,94821.13
2022-09-21T06:40:21.130Z,94818.03
2022-09-21T06:42:22.773Z,94819.09
2022-09-21T06:44:24.396Z,94819.16
2022-09-21T06:46:26.076Z,94818.94
2022-09-21T06:48:28.917Z,94818.66
2022-09-21T06:50:30.476Z,94820.72
2022-09-21T06:52:33.219Z,94822.75
2022-09-21T06:54:34.777Z,94828.94
2022-09-21T06:56:36.601Z,94827.16
2022-09-21T06:58:38.768Z,94830.38
2022-09-21T07:00:40.332Z,94834.84
2022-09-21T07:02:45.525Z,94833.19
2022-09-21T07:04:47.181Z,94842.41
2022-09-21T07:06:49.391Z,94837.03
2022-09-21T07:11:15.430Z,94831.50
2022-09-21T07:13:17.873Z,94835.09
2022-09-21T07:15:19.618Z,94828.00
2022-09-21T07:17:21.853Z,94828.31
2022-09-21T07:19:23.520Z,94835.06
2022-09-21T07:21:25.094Z,94823.72
2022-09-21T07:23:26.721Z,94834.72
2022-09-21T07:25:29.138Z,94828.19
2022-09-21T07:27:32.208Z,94831.78
2022-09-21T07:29:33.972Z,94838.09
2022-09-21T07:31:35.633Z,94866.34
2022-09-21T07:33:37.658Z,94848.81
2022-09-21T07:35:39.376Z,94847.47
2022-09-21T07:37:40.925Z,94845.47
2022-09-21T07:39:42.641Z,94844.63
2022-09-21T07:41:44.307Z,94852.75
2022-09-21T07:43:45.982Z,94842.13
2022-09-21T07:45:57.035Z,94832.16
2022-09-21T07:48:05.430Z,94838.88
2022-09-21T07:50:07.293Z,94841.59
2022-09-21T07:52:11.092Z,94841.81
2022-09-21T07:54:13.616Z,94847.28
2022-09-21T07:56:16.850Z,94841.19
2022-09-21T07:58:37.179Z,94839.78
2022-09-21T08:00:38.924Z,94836.44
2022-09-21T08:02:45.138Z,94831.25
2022-09-21T08:04:48.978Z,94839.28
2022-09-21T08:06:50.620Z,94827.38
2022-09-21T08:08:57.206Z,94841.63
2022-09-21T08:11:04.158Z,94827.19
2022-09-21T08:13:06.322Z,94834.88
2022-09-21T08:15:20.385Z,94827.56
2022-09-21T08:17:26.848Z,94839.22
2022-09-21T08:19:28.597Z,94844.59
2022-09-21T08:21:30.268Z,94834.47
2022-09-21T08:23:31.882Z,94824.44
2022-09-21T08:25:34.351Z,94822.09
2022-09-21T08:27:36.168Z,94822.66
2022-09-21T08:29:37.740Z,94818.63
2022-09-21T08:31:39.804Z,94816.94
2022-09-21T08:33:41.435Z,94811.25
2022-09-21T08:35:43.011Z,94820.28
2022-09-21T08:37:44.613Z,94818.50
2022-09-21T08:39:46.253Z,94814.00
2022-09-21T08:42:10.563Z,94820.28
2022-09-21T08:44:16.837Z,94819.88
2022-09-21T08:46:24.851Z,94818.63
2022-09-21T08:48:34.428Z,94810.78
2022-09-21T08:50:42.931Z,94815.69
2022-09-21T08:52:47.412Z,94805.56
2022-09-21T08:54:53.592Z,94806.41
2022-09-21T08:57:11.250Z,94807.56
2022-09-21T08:59:15.553Z,94813.50
2022-09-21T09:01:20.115Z,94801.31
2022-09-21T09:03:48.324Z,94800.56
2022-09-21T09:06:01.870Z,94798.16
2022-09-21T09:08:18.118Z,94806.16
2022-09-21T09:10:34.987Z,94794.03
2022-09-21T09:12:48.753Z,94797.38
2022-09-21T09:15:13.385Z,94790.75
2022-09-21T09:17:14.860Z,94786.28
2022-09-21T09:19:41.029Z,94791.16
2022-09-21T09:21:43.585Z,94786.81
2022-09-21T09:23:52.825Z,94777.56
2022-09-21T09:26:00.353Z,94778.81
2022-09-21T09:28:10.929Z,94773.13
2022-09-21T09:30:25.601Z,94783.97
2022-09-21T09:33:04.687Z,94789.22
2022-09-21T09:35:28.929Z,94788.34
2022-09-21T09:37:34.131Z,94779.91
2022-09-21T09:39:35.811Z,94767.53
2022-09-21T09:41:59.334Z,94766.97
2022-09-21T09:44:39.043Z,94763.94
2022-09-21T09:46:59.405Z,94760.38
2022-09-21T09:49:26.838Z,94757.22
2022-09-21T09:51:28.606Z,94758.09
2022-09-21T09:53:30.835Z,94759.19
2022-09-21T09:55:40.370Z,94761.59
2022-09-21T09:57:42.091Z,94767.53
2022-09-21T09:59:53.986Z,94761.25
2022-09-21T10:02:11.265Z,94758.78
2022-09-21T10:04:15.438Z,94755.84
2022-09-21T10:06:31.682Z,94745.81
2022-09-21T10:08:48.849Z,94743.28
2022-09-21T10:10:50.512Z,94755.72
2022-09-21T10:12:53.061Z,94743.47
2022-09-21T10:15:00.873Z,94734.31
2022-09-21T10:17:07.819Z,94736.31
2022-09-21T10:19:18.723Z,94733.28
2022-09-21T10:21:35.099Z,94731.63
2022-09-21T10:23:37.254Z,94732.09
2022-09-21T10:25:40.297Z,94724.28
2022-09-21T10:27:44.617Z,94721.09
2022-09-21T10:29:48.089Z,94722.59
2022-09-21T10:31:59.619Z,94712.44
2022-09-21T10:34:04.304Z,94708.47
2022-09-21T10:36:30.502Z,94723.81
2022-09-21T10:38:32.411Z,94708.91
2022-09-21T10:40:37.261Z,94711.06
2022-09-21T10:42:42.437Z,94705.28
2022-09-21T10:44:46.589Z,94702.59
2022-09-21T10:46:49.290Z,94711.97
2022-09-21T10:48:50.983Z,94707.88
2022-09-21T10:50:53.669Z,94717.22
2022-09-21T10:53:00.409Z,94706.47
2022-09-21T10:55:02.478Z,94705.56
2022-09-21T10:57:08.161Z,94697.44
2022-09-21T10:59:21.758Z,94697.25
2022-09-21T11:01:24.029Z,94690.06
2022-09-21T11:03:31.376Z,94696.00
2022-09-21T11:05:41.929Z,94685.34
2022-09-21T11:07:58.839Z,94694.34
2022-09-21T11:10:12.371Z,94699.72
2022-09-21T11:12:39.383Z,94689.38
2022-09-21T11:14:51.438Z,94678.75
2022-09-21T11:17:14.076Z,94674.09
2022-09-21T11:19:35.532Z,94682.47
2022-09-21T11:22:11.973Z,94681.13
2022-09-21T11:24:38.420Z,94670.38
2022-09-21T11:26:47.090Z,94684.31
2022-09-21T11:28:54.586Z,94691.16
2022-09-21T11:31:32.242Z,94685.16
2022-09-21T11:33:56.667Z,94708.78
2022-09-21T11:36:07.238Z,94695.16
2022-09-21T11:38:16.076Z,94689.41
2022-09-21T11:40:35.980Z,94692.53
2022-09-21T11:43:09.879Z,94687.84
2022-09-21T11:45:23.709Z,94687.03
2022-09-21T11:47:45.606Z,94687.84
2022-09-21T11:50:07.833Z,94698.88
2022-09-21T11:52:26.114Z,94693.97
2022-09-21T11:54:30.656Z,94702.59
2022-09-21T11:56:56.079Z,94690.56
2022-09-21T11:59:14.615Z,94694.16
2022-09-21T12:01:43.296Z,94700.88
2022-09-21T12:03:44.823Z,94703.41
2022-09-21T12:06:03.850Z,94699.56
2022-09-21T12:08:11.368Z,94708.81
2022-09-21T12:10:45.489Z,94715.75
2022-09-21T12:12:56.049Z,94710.75
2022-09-21T12:15:15.985Z,94712.84
2022-09-21T12:17:56.474Z,94706.66
2022-09-21T12:20:10.519Z,94713.22
2022-09-21T12:22:29.682Z,94713.09
2022-09-21T12:24:40.055Z,94717.31
2022-09-21T12:26:50.450Z,94708.38
2022-09-21T12:29:01.052Z,94708.53
2022-09-21T12:31:09.186Z,94711.81
2022-09-21T12:33:35.136Z,94715.38
2022-09-21T12:35:46.917Z,94712.41
2022-09-21T12:37:55.115Z,94716.63
2022-09-21T12:40:03.050Z,94712.03
2022-09-21T12:42:12.333Z,94709.94
2022-09-21T12:44:34.381Z,94698.25
2022-09-21T12:46:48.712Z,94710.56
2022-09-21T12:48:51.566Z,94708.56
2022-09-21T12:50:56.399Z,94701.09
2022-09-21T12:52:58.322Z,94710.47
2022-09-21T12:55:06.004Z,94700.63
2022-09-21T12:57:40.808Z,94701.72
2022-09-21T12:59:43.522Z,94697.75
2022-09-21T13:01:57.286Z,94712.28
2022-09-21T13:04:12.980Z,94701.22
2022-09-21T13:06:29.617Z,94693.56
2022-09-21T13:08:38.519Z,94698.50
2022-09-21T13:11:01.549Z,94692.88
2022-09-21T13:13:04.126Z,94687.00
2022-09-21T13:15:17.653Z,94693.38
2022-09-21T13:17:24.658Z,94702.72
2022-09-21T13:19:27.969Z,94688.03
2022-09-21T13:21:32.135Z,94702.41
2022-09-21T13:23:42.186Z,94685.13
2022-09-21T13:25:59.036Z,94686.91
2022-09-21T13:28:10.239Z,94692.78
2022-09-21T13:30:28.622Z,94688.31
2022-09-21T13:32:50.991Z,94692.28
2022-09-21T13:34:52.839Z,94692.41
2022-09-21T13:37:15.801Z,94684.16
2022-09-21T13:39:18.941Z,94679.81
2022-09-21T13:41:45.551Z,94684.69
2022-09-21T13:43:59.720Z,94677.34
2022-09-21T13:46:04.543Z,94681.88
2022-09-21T13:48:19.527Z,94674.28
2022-09-21T13:50:31.592Z,94677.72
2022-09-21T13:52:54.375Z,94669.56
2022-09-21T13:55:05.637Z,94676.53
2022-09-21T13:57:17.552Z,94667.75
2022-09-21T13:59:22.548Z,94669.03
2022-09-21T14:01:46.843Z,94665.53
2022-09-21T14:04:04.418Z,94663.47
2022-09-21T14:06:10.265Z,94663.38
2022-09-21T14:08:14.922Z,94663.19
2022-09-21T14:10:21.299Z,94658.38
2022-09-21T14:12:26.967Z,94664.66
2022-09-21T14:14:37.539Z,94662.31
2022-09-21T14:16:39.898Z,94657.69
2022-09-21T14:18:41.782Z,94661.94
2022-09-21T14:21:17.741Z,94660.56
2022-09-21T14:23:22.335Z,94659.38
2022-09-21T14:25:28.686Z,94657.22
2022-09-21T14:27:42.252Z,94667.19
2022-09-21T14:30:11.283Z,94648.59
2022-09-21T14:32:39.557Z,94648.66
2022-09-21T14:34:41.710Z,94666.66
2022-09-21T14:36:46.644Z,94653.50
2022-09-21T14:38:55.416Z,94667.66
2022-09-21T14:41:01.013Z,94663.13
2022-09-21T14:43:09.163Z,94668.56
2022-09-21T14:45:18.387Z,94670.09
2022-09-21T14:47:52.025Z,94671.03
2022-09-21T14:50:23.049Z,94674.72
2022-09-21T14:52:34.465Z,94674.06
2022-09-21T14:54:42.092Z,94656.88
2022-09-21T14:56:54.229Z,94674.75
2022-09-21T14:59:12.528Z,94665.47
2022-09-21T15:01:23.050Z,94675.47
2022-09-21T15:03:49.025Z,94672.16
2022-09-21T15:05:56.373Z,94672.66
2022-09-21T15:08:54.869Z,94673.66
2022-09-21T15:11:10.352Z,94675.00
2022-09-21T15:13:32.500Z,94675.16
2022-09-21T15:15:53.490Z,94671.78
2022-09-21T15:17:59.751Z,94682.28
2022-09-21T15:20:15.750Z,94678.50
2022-09-21T15:22:19.894Z,94685.72
2022-09-21T15:24:24.992Z,94700.25
2022-09-21T15:26:29.885Z,94681.25
2022-09-21T15:28:58.050Z,94687.38
2022-09-21T15:30:58.550Z,94682.16
2022-09-21T15:33:01.324Z,94688.28
2022-09-21T15:35:24.590Z,94690.19
2022-09-21T15:37:26.302Z,94696.72
2022-09-21T15:39:30.641Z,94693.47
2022-09-21T15:41:47.584Z,94693.09
2022-09-21T15:43:58.045Z,94696.34
2022-09-21T15:46:04.819Z,94700.66
2022-09-21T15:48:12.434Z,94711.13
2022-09-21T15:50:15.164Z,94707.94
2022-09-21T15:52:33.857Z,94711.28
2022-09-21T15:54:42.749Z,94711.66
2022-09-21T15:56:44.850Z,94709.91
2022-09-21T15:58:49.959Z,94710.06
2022-09-21T16:00:55.645Z,94709.53
2022-09-21T16:03:08.402Z,94719.66
2022-09-21T16:05:14.949Z,94722.34
2022-09-21T16:07:26.982Z,94722.72
2022-09-21T16:09:38.621Z,94720.78
2022-09-21T16:11:41.332Z,94717.19
2022-09-21T16:14:02.866Z,94723.78
2022-09-21T16:16:09.110Z,94732.09
2022-09-21T16:18:32.101Z,94726.03
2022-09-21T16:20:39.645Z,94732.31
2022-09-21T16:22:42.714Z,94729.88
2022-09-21T16:24:50.418Z,94729.59
2022-09-21T16:26:57.950Z,94732.88
2022-09-21T16:29:20.294Z,94730.81
2022-09-21T16:31:24.812Z,94721.28
2022-09-21T16:33:44.407Z,94730.38
2022-09-21T16:35:46.334Z,94730.53
2022-09-21T16:37:48.180Z,94737.00
2022-09-21T16:39:56.172Z,94732.91
2022-09-21T16:42:01.820Z,94736.47
2022-09-21T16:44:03.658Z,94741.06
2022-09-21T16:46:07.570Z,94736.81
2022-09-21T16:48:09.807Z,94741.38
2022-09-21T16:50:12.733Z,94748.59
2022-09-21T16:52:17.031Z,94750.00
2022-09-21T16:54:20.613Z,94740.38
2022-09-21T16:56:22.564Z,94752.72
2022-09-21T16:58:24.234Z,94756.97
2022-09-21T17:00:29.651Z,94761.22
2022-09-21T17:02:31.603Z,94761.78
2022-09-21T17:04:35.034Z,94760.59
2022-09-21T17:06:36.840Z,94768.69
2022-09-21T17:08:38.439Z,94774.06
2022-09-21T17:10:44.239Z,94779.22
2022-09-21T17:12:45.831Z,94785.72
2022-09-21T17:14:47.698Z,94786.78
2022-09-21T17:16:52.082Z,94789.75
2022-09-21T17:18:53.643Z,94794.34
2022-09-21T17:20:55.378Z,94795.81
2022-09-21T17:22:58.287Z,94802.88
2022-09-21T17:25:00.058Z,94798.72
2022-09-21T17:27:01.764Z,94805.00
2022-09-21T17:29:06.078Z,94809.78
2022-09-21T17:31:14.414Z,94815.72
2022-09-21T17:33:18.181Z,94820.34
2022-09-21T17:35:30.898Z,94816.09
2022-09-21T17:37:34.150Z,94820.03
2022-09-21T17:39:36.944Z,94816.56
2022-09-21T17:41:52.575Z,94822.16
2022-09-21T17:44:24.221Z,94813.94
2022-09-21T17:47:05.751Z,94819.03
2022-09-21T17:49:11.546Z,94823.31
2022-09-21T17:51:34.321Z,94831.50
2022-09-21T17:53:40.952Z,94830.38
2022-09-21T17:55:54.856Z,94838.91
2022-09-21T17:58:34.893Z,94838.72
2022-09-21T18:01:08.142Z,94830.19
2022-09-21T18:03:41.440Z,94837.75
2022-09-21T18:05:43.888Z,94841.19
2022-09-21T18:07:46.132Z,94830.69
2022-09-21T18:09:48.442Z,94837.75
2022-09-21T18:12:14.312Z,94839.22
2022-09-21T18:14:45.938Z,94833.00
2022-09-21T18:17:20.530Z,94833.16
2022-09-21T18:19:57.924Z,94839.72
2022-09-21T18:22:32.755Z,94841.19
2022-09-21T18:24:35.982Z,94852.00
2022-09-21T18:26:41.047Z,94848.25
2022-09-21T18:28:52.099Z,94845.94
2022-09-21T18:31:04.052Z,94847.91
2022-09-21T18:33:21.379Z,94853.16
2022-09-21T18:35:32.813Z,94857.44
2022-09-21T18:37:35.448Z,94857.75
2022-09-21T18:39:56.043Z,94859.91
2022-09-21T18:42:23.305Z,94859.56
2022-09-21T18:44:32.269Z,94861.16
2022-09-21T18:46:51.132Z,94873.63
2022-09-21T18:49:06.243Z,94859.84
2022-09-21T18:51:14.670Z,94858.38
2022-09-21T18:53:47.715Z,94854.28
2022-09-21T18:55:50.922Z,94857.19
2022-09-21T18:57:55.295Z,94854.09
2022-09-21T18:59:57.726Z,94866.56
2022-09-21T19:02:00.550Z,94862.47
2022-09-21T19:04:03.289Z,94860.53
2022-09-21T19:06:15.011Z,94857.44
2022-09-21T19:08:41.527Z,94873.50
2022-09-21T19:11:25.532Z,94868.69
2022-09-21T19:13:53.911Z,94867.75
2022-09-21T19:16:11.934Z,94869.19
2022-09-21T19:18:25.611Z,94867.88
2022-09-21T19:21:09.400Z,94864.28
2022-09-21T19:23:36.163Z,94861.00
2022-09-21T19:25:49.734Z,94865.44
2022-09-21T19:28:05.882Z,94868.22
2022-09-21T19:30:12.862Z,94863.94
2022-09-21T19:32:29.495Z,94861.13
2022-09-21T19:34:32.039Z,94867.88
2022-09-21T19:36:34.251Z,94862.63
2022-09-21T19:38:36.531Z,94862.28
2022-09-21T19:40:40.239Z,94861.97
2022-09-21T19:42:54.530Z,94861.78
2022-09-21T19:44:56.665Z,94858.50
2022-09-21T19:47:17.303Z,94853.25
2022-09-21T19:49:21.248Z,94855.03
2022-09-21T19:51:47.968Z,94852.06
2022-09-21T19:54:13.634Z,94864.47
2022-09-21T19:56:35.861Z,94858.94
2022-09-21T19:58:56.718Z,94856.63
2022-09-21T20:00:59.458Z,94853.53
2022-09-21T20:03:05.963Z,94850.25
2022-09-21T20:05:08.120Z,94853.19
2022-09-21T20:07:19.529Z,94852.56
2022-09-21T20:09:29.376Z,94855.84
2022-09-21T20:11:45.077Z,94859.25
2022-09-21T20:13:49.926Z,94864.03
2022-09-21T20:16:03.354Z,94861.88
2022-09-21T20:18:12.134Z,94866.16
2022-09-21T20:20:20.714Z,94872.69
2022-09-21T20:22:34.096Z,94873.66
2022-09-21T20:24:58.661Z,94871.03
2022-09-21T20:27:02.159Z,94871.38
2022-09-21T20:29:04.041Z,94869.06
2022-09-21T20:31:05.674Z,94868.41
2022-09-21T20:33:14.325Z,94872.84
2022-09-21T20:35:17.424Z,94874.16
2022-09-21T20:37:19.365Z,94876.78
2022-09-21T20:39:20.943Z,94880.22
2022-09-21T20:41:24.556Z,94876.63
2022-09-21T20:43:31.801Z,94880.53
2022-09-21T20:45:35.557Z,94876.28
2022-09-21T20:47:37.996Z,94879.38
2022-09-21T20:49:39.808Z,94876.47
2022-09-21T20:51:41.411Z,94874.16
2022-09-21T20:53:43.230Z,94884.31
2022-09-21T20:55:53.539Z,94870.72
2022-09-21T20:57:55.171Z,94876.09
2022-09-21T20:59:57.628Z,94882.53
2022-09-21T21:01:59.265Z,94880.38
2022-09-21T21:04:03.336Z,94876.41
2022-09-21T21:06:12.854Z,94878.50
2022-09-21T21:08:14.409Z,94877.06
2022-09-21T21:10:17.409Z,94879.53
2022-09-21T21:12:19.249Z,94878.88
2022-09-21T21:14:21.433Z,94876.25
2022-09-21T21:16:23.706Z,94882.47
2022-09-21T21:18:25.688Z,94883.44
2022-09-21T21:20:28.515Z,94882.94
2022-09-21T21:22:30.186Z,94870.00
2022-09-21T21:24:41.051Z,94878.53
2022-09-21T21:27:01.364Z,94881.94
2022-09-21T21:29:04.729Z,94875.16
2022-09-21T21:31:06.343Z,94879.78
2022-09-21T21:33:07.896Z,94877.31
2022-09-21T21:35:09.620Z,94878.88
2022-09-21T21:37:12.310Z,94873.13
2022-09-21T21:39:13.884Z,94880.03
2022-09-21T21:41:15.543Z,94878.06
2022-09-21T21:43:17.125Z,94874.78
2022-09-21T21:45:20.866Z,94872.50
2022-09-21T21:49:44.073Z,94868.41
2022-09-21T21:51:46.000Z,94870.88
2022-09-21T21:53:47.656Z,94869.88
2022-09-21T21:55:49.207Z,94863.31
2022-09-21T21:57:51.410Z,94870.88
2022-09-21T21:59:53.121Z,94868.41
2022-09-21T22:01:54.885Z,94865.16
2022-09-21T22:03:57.463Z,94874.13
2022-09-21T22:05:59.053Z,94869.06
2022-09-21T22:08:00.783Z,94866.94
2022-09-21T22:10:03.095Z,94863.34
2022-09-21T22:12:04.739Z,94862.88
2022-09-21T22:14:06.793Z,94873.22
2022-09-21T22:16:19.403Z,94868.13
2022-09-21T22:18:21.008Z,94870.75
2022-09-21T22:20:23.816Z,94869.94
2022-09-21T22:22:25.403Z,94863.34
2022-09-21T22:24:26.967Z,94862.63
2022-09-21T22:26:30.693Z,94862.50
2022-09-21T22:28:33.244Z,94861.03
2022-09-21T22:30:34.894Z,94858.88
2022-09-21T22:32:36.851Z,94858.88
2022-09-21T22:34:38.452Z,94858.00
2022-09-21T22:36:40.760Z,94850.94
2022-09-21T22:38:43.278Z,94857.31
2022-09-21T22:40:45.784Z,94856.00
2022-09-21T22:42:47.902Z,94861.84
2022-09-21T22:44:49.621Z,94857.41
2022-09-21T22:46:51.226Z,94856.94
2022-09-21T22:48:53.071Z,94859.91
2022-09-21T22:50:55.267Z,94862.03
2022-09-21T22:52:56.891Z,94868.09
2022-09-21T22:54:58.464Z,94860.91
2022-09-21T22:57:00.277Z,94861.84
2022-09-21T22:59:05.574Z,94867.91
2022-09-21T23:01:16.744Z,94869.69
2022-09-21T23:03:18.413Z,94867.56
2022-09-21T23:05:19.976Z,94880.25
2022-09-21T23:07:21.509Z,94875.66
2022-09-21T23:09:23.144Z,94871.34
2022-09-21T23:11:30.720Z,94875.09
2022-09-21T23:13:32.633Z,94875.22
2022-09-21T23:15:34.450Z,94878.38
2022-09-21T23:17:36.265Z,94878.91
2022-09-21T23:19:37.840Z,94874.13
2022-09-21T23:21:39.464Z,94873.13
2022-09-21T23:23:41.229Z,94880.53
2022-09-21T23:25:42.937Z,94872.16
2022-09-21T23:27:44.579Z,94878.56
2022-09-21T23:29:46.124Z,94872.53
2022-09-21T23:31:47.764Z,94876.28
2022-09-21T23:33:51.757Z,94874.22
2022-09-21T23:35:53.401Z,94868.63
2022-09-21T23:37:54.920Z,94873.03
2022-09-21T23:39:56.576Z,94874.69
2022-09-21T23:41:58.168Z,94870.09
2022-09-21T23:43:59.970Z,94875.50
2022-09-21T23:46:02.121Z,94880.72
2022-09-21T23:48:03.878Z,94863.22
2022-09-21T23:50:06.081Z,94871.91
2022-09-21T23:52:07.726Z,94867.84
2022-09-21T23:54:09.332Z,94866.88
2022-09-21T23:56:14.128Z,94860.97
2022-09-21T23:58:16.131Z,94862.13
